sensor_id;sensor_type;location;lat;lon;timestamp;P1;durP1;ratioP1;P2;durP2;ratioP2
64712;SDS011;51140;45.340;5.980;2023-04-03T00:01:18;5.13;;;1.60;;
64712;SDS011;51140;45.340;5.980;2023-04-03T00:03:44;5.20;;;1.60;;
64712;SDS011;51140;45.340;5.980;2023-04-03T00:06:10;3.85;;;1.58;;
64712;SDS011;51140;45.340;5.980;2023-04-03T00:08:37;4.10;;;1.50;;
64712;SDS011;51140;45.340;5.980;2023-04-03T00:11:03;3.53;;;1.33;;
64712;SDS011;51140;45.340;5.980;2023-04-03T00:13:30;4.35;;;1.40;;
64712;SDS011;51140;45.340;5.980;2023-04-03T00:15:56;3.78;;;1.38;;
64712;SDS011;51140;45.340;5.980;2023-04-03T00:18:21;3.95;;;1.67;;
64712;SDS011;51140;45.340;5.980;2023-04-03T00:20:47;4.97;;;1.60;;
64712;SDS011;51140;45.340;5.980;2023-04-03T00:23:13;3.33;;;1.42;;
64712;SDS011;51140;45.340;5.980;2023-04-03T00:25:39;3.85;;;1.52;;
64712;SDS011;51140;45.340;5.980;2023-04-03T00:28:05;3.42;;;1.50;;
64712;SDS011;51140;45.340;5.980;2023-04-03T00:30:31;3.55;;;1.50;;
64712;SDS011;51140;45.340;5.980;2023-04-03T00:32:57;4.28;;;1.48;;
64712;SDS011;51140;45.340;5.980;2023-04-03T00:35:23;5.28;;;1.20;;
64712;SDS011;51140;45.340;5.980;2023-04-03T00:37:52;4.20;;;1.38;;
64712;SDS011;51140;45.340;5.980;2023-04-03T00:40:19;2.00;;;1.08;;
64712;SDS011;51140;45.340;5.980;2023-04-03T00:42:46;3.17;;;1.20;;
64712;SDS011;51140;45.340;5.980;2023-04-03T00:47:54;2.80;;;1.10;;
64712;SDS011;51140;45.340;5.980;2023-04-03T00:50:20;3.97;;;1.42;;
64712;SDS011;51140;45.340;5.980;2023-04-03T00:52:46;5.18;;;1.33;;
64712;SDS011;51140;45.340;5.980;2023-04-03T00:55:14;4.53;;;1.45;;
64712;SDS011;51140;45.340;5.980;2023-04-03T00:57:40;5.38;;;1.35;;
64712;SDS011;51140;45.340;5.980;2023-04-03T01:00:08;3.80;;;1.20;;
64712;SDS011;51140;45.340;5.980;2023-04-03T01:02:38;3.42;;;1.30;;
64712;SDS011;51140;45.340;5.980;2023-04-03T01:05:05;3.80;;;1.40;;
64712;SDS011;51140;45.340;5.980;2023-04-03T01:07:31;4.28;;;1.60;;
64712;SDS011;51140;45.340;5.980;2023-04-03T01:09:59;5.28;;;1.42;;
64712;SDS011;51140;45.340;5.980;2023-04-03T01:12:31;3.15;;;1.25;;
64712;SDS011;51140;45.340;5.980;2023-04-03T01:14:59;5.55;;;1.20;;
64712;SDS011;51140;45.340;5.980;2023-04-03T01:25:36;2.50;;;1.00;;
64712;SDS011;51140;45.340;5.980;2023-04-03T01:28:12;2.60;;;1.20;;
64712;SDS011;51140;45.340;5.980;2023-04-03T01:30:45;3.35;;;1.20;;
64712;SDS011;51140;45.340;5.980;2023-04-03T01:33:15;2.65;;;0.93;;
64712;SDS011;51140;45.340;5.980;2023-04-03T01:35:40;2.25;;;1.00;;
64712;SDS011;51140;45.340;5.980;2023-04-03T01:38:06;2.88;;;1.17;;
64712;SDS011;51140;45.340;5.980;2023-04-03T01:40:31;2.83;;;1.10;;
64712;SDS011;51140;45.340;5.980;2023-04-03T01:42:57;5.40;;;2.20;;
64712;SDS011;51140;45.340;5.980;2023-04-03T01:45:23;2.50;;;1.00;;
64712;SDS011;51140;45.340;5.980;2023-04-03T01:47:48;3.72;;;1.42;;
64712;SDS011;51140;45.340;5.980;2023-04-03T01:50:13;5.18;;;1.33;;
64712;SDS011;51140;45.340;5.980;2023-04-03T01:52:39;3.10;;;0.90;;
64712;SDS011;51140;45.340;5.980;2023-04-03T01:55:05;3.75;;;1.40;;
64712;SDS011;51140;45.340;5.980;2023-04-03T01:57:30;8.25;;;1.48;;
64712;SDS011;51140;45.340;5.980;2023-04-03T01:59:56;4.43;;;1.67;;
64712;SDS011;51140;45.340;5.980;2023-04-03T02:02:21;3.97;;;1.55;;
64712;SDS011;51140;45.340;5.980;2023-04-03T02:04:46;5.85;;;1.80;;
64712;SDS011;51140;45.340;5.980;2023-04-03T02:07:12;4.90;;;1.85;;
64712;SDS011;51140;45.340;5.980;2023-04-03T02:09:37;4.10;;;1.75;;
64712;SDS011;51140;45.340;5.980;2023-04-03T02:12:02;4.90;;;1.40;;
64712;SDS011;51140;45.340;5.980;2023-04-03T02:14:28;3.75;;;1.33;;
64712;SDS011;51140;45.340;5.980;2023-04-03T02:16:53;2.95;;;1.25;;
64712;SDS011;51140;45.340;5.980;2023-04-03T02:19:19;4.35;;;1.70;;
64712;SDS011;51140;45.340;5.980;2023-04-03T02:21:44;2.97;;;1.40;;
64712;SDS011;51140;45.340;5.980;2023-04-03T02:24:10;4.63;;;1.40;;
64712;SDS011;51140;45.340;5.980;2023-04-03T02:26:35;6.03;;;2.45;;
64712;SDS011;51140;45.340;5.980;2023-04-03T02:29:01;5.50;;;1.52;;
64712;SDS011;51140;45.340;5.980;2023-04-03T02:31:26;4.45;;;1.48;;
64712;SDS011;51140;45.340;5.980;2023-04-03T02:33:51;3.40;;;1.40;;
64712;SDS011;51140;45.340;5.980;2023-04-03T02:36:17;2.65;;;1.23;;
64712;SDS011;51140;45.340;5.980;2023-04-03T02:38:42;3.50;;;1.42;;
64712;SDS011;51140;45.340;5.980;2023-04-03T02:41:09;4.45;;;1.50;;
64712;SDS011;51140;45.340;5.980;2023-04-03T02:43:36;4.70;;;1.70;;
64712;SDS011;51140;45.340;5.980;2023-04-03T02:46:02;5.10;;;1.75;;
64712;SDS011;51140;45.340;5.980;2023-04-03T02:48:27;4.72;;;1.45;;
64712;SDS011;51140;45.340;5.980;2023-04-03T02:50:53;3.92;;;1.73;;
64712;SDS011;51140;45.340;5.980;2023-04-03T02:53:19;4.05;;;1.70;;
64712;SDS011;51140;45.340;5.980;2023-04-03T02:55:44;4.68;;;1.95;;
64712;SDS011;51140;45.340;5.980;2023-04-03T02:58:10;4.57;;;1.70;;
64712;SDS011;51140;45.340;5.980;2023-04-03T03:00:35;3.38;;;1.52;;
64712;SDS011;51140;45.340;5.980;2023-04-03T03:03:01;5.78;;;1.40;;
64712;SDS011;51140;45.340;5.980;2023-04-03T03:05:27;3.83;;;1.45;;
64712;SDS011;51140;45.340;5.980;2023-04-03T03:07:53;4.78;;;1.70;;
64712;SDS011;51140;45.340;5.980;2023-04-03T03:10:19;4.70;;;1.90;;
64712;SDS011;51140;45.340;5.980;2023-04-03T03:12:44;5.15;;;1.90;;
64712;SDS011;51140;45.340;5.980;2023-04-03T03:15:10;5.00;;;2.10;;
64712;SDS011;51140;45.340;5.980;2023-04-03T03:17:36;7.38;;;2.20;;
64712;SDS011;51140;45.340;5.980;2023-04-03T03:20:03;9.10;;;1.77;;
64712;SDS011;51140;45.340;5.980;2023-04-03T03:22:30;4.13;;;1.95;;
64712;SDS011;51140;45.340;5.980;2023-04-03T03:24:55;3.58;;;1.60;;
64712;SDS011;51140;45.340;5.980;2023-04-03T03:27:20;5.15;;;1.90;;
64712;SDS011;51140;45.340;5.980;2023-04-03T03:29:46;3.92;;;1.70;;
64712;SDS011;51140;45.340;5.980;2023-04-03T03:32:12;5.20;;;1.98;;
64712;SDS011;51140;45.340;5.980;2023-04-03T03:34:37;5.00;;;2.17;;
64712;SDS011;51140;45.340;5.980;2023-04-03T03:37:02;6.85;;;2.05;;
64712;SDS011;51140;45.340;5.980;2023-04-03T03:39:28;5.65;;;2.00;;
64712;SDS011;51140;45.340;5.980;2023-04-03T03:41:53;5.30;;;2.20;;
64712;SDS011;51140;45.340;5.980;2023-04-03T03:44:19;4.72;;;1.75;;
64712;SDS011;51140;45.340;5.980;2023-04-03T03:46:45;4.32;;;1.90;;
64712;SDS011;51140;45.340;5.980;2023-04-03T03:49:10;6.40;;;1.95;;
64712;SDS011;51140;45.340;5.980;2023-04-03T03:51:36;4.90;;;1.83;;
64712;SDS011;51140;45.340;5.980;2023-04-03T03:54:02;6.35;;;2.00;;
64712;SDS011;51140;45.340;5.980;2023-04-03T03:56:28;5.25;;;1.83;;
64712;SDS011;51140;45.340;5.980;2023-04-03T03:58:54;4.57;;;1.92;;
64712;SDS011;51140;45.340;5.980;2023-04-03T04:01:21;4.68;;;2.05;;
64712;SDS011;51140;45.340;5.980;2023-04-03T04:03:47;4.05;;;1.73;;
64712;SDS011;51140;45.340;5.980;2023-04-03T04:06:13;4.38;;;1.90;;
64712;SDS011;51140;45.340;5.980;2023-04-03T04:08:38;4.50;;;2.00;;
64712;SDS011;51140;45.340;5.980;2023-04-03T04:11:04;3.75;;;1.60;;
64712;SDS011;51140;45.340;5.980;2023-04-03T04:13:30;3.80;;;1.75;;
64712;SDS011;51140;45.340;5.980;2023-04-03T04:15:55;8.20;;;1.80;;
64712;SDS011;51140;45.340;5.980;2023-04-03T04:18:21;6.30;;;2.22;;
64712;SDS011;51140;45.340;5.980;2023-04-03T04:20:47;8.98;;;2.03;;
64712;SDS011;51140;45.340;5.980;2023-04-03T04:23:13;6.05;;;2.58;;
64712;SDS011;51140;45.340;5.980;2023-04-03T04:25:39;8.70;;;2.90;;
64712;SDS011;51140;45.340;5.980;2023-04-03T04:28:05;6.63;;;2.90;;
64712;SDS011;51140;45.340;5.980;2023-04-03T04:30:31;6.43;;;2.97;;
64712;SDS011;51140;45.340;5.980;2023-04-03T04:32:56;5.28;;;2.55;;
64712;SDS011;51140;45.340;5.980;2023-04-03T04:35:22;5.03;;;2.53;;
64712;SDS011;51140;45.340;5.980;2023-04-03T04:37:47;6.45;;;3.00;;
64712;SDS011;51140;45.340;5.980;2023-04-03T04:40:12;6.35;;;2.97;;
64712;SDS011;51140;45.340;5.980;2023-04-03T04:42:38;7.85;;;3.30;;
64712;SDS011;51140;45.340;5.980;2023-04-03T04:45:03;8.75;;;4.60;;
64712;SDS011;51140;45.340;5.980;2023-04-03T04:47:29;7.32;;;3.63;;
64712;SDS011;51140;45.340;5.980;2023-04-03T04:49:55;7.68;;;4.20;;
64712;SDS011;51140;45.340;5.980;2023-04-03T04:52:20;8.13;;;4.30;;
64712;SDS011;51140;45.340;5.980;2023-04-03T04:54:45;8.27;;;4.15;;
64712;SDS011;51140;45.340;5.980;2023-04-03T04:57:11;8.00;;;4.63;;
64712;SDS011;51140;45.340;5.980;2023-04-03T04:59:36;6.60;;;3.53;;
64712;SDS011;51140;45.340;5.980;2023-04-03T05:02:02;7.85;;;3.13;;
64712;SDS011;51140;45.340;5.980;2023-04-03T05:04:27;8.68;;;3.42;;
64712;SDS011;51140;45.340;5.980;2023-04-03T05:06:53;7.80;;;3.75;;
64712;SDS011;51140;45.340;5.980;2023-04-03T05:09:18;7.30;;;3.28;;
64712;SDS011;51140;45.340;5.980;2023-04-03T05:11:45;7.05;;;3.15;;
64712;SDS011;51140;45.340;5.980;2023-04-03T05:14:10;7.07;;;3.17;;
64712;SDS011;51140;45.340;5.980;2023-04-03T05:16:36;8.13;;;3.78;;
64712;SDS011;51140;45.340;5.980;2023-04-03T05:19:01;5.93;;;2.97;;
64712;SDS011;51140;45.340;5.980;2023-04-03T05:21:27;5.43;;;2.97;;
64712;SDS011;51140;45.340;5.980;2023-04-03T05:23:57;5.88;;;2.53;;
64712;SDS011;51140;45.340;5.980;2023-04-03T05:26:27;5.20;;;2.42;;
64712;SDS011;51140;45.340;5.980;2023-04-03T05:28:54;5.40;;;2.60;;
64712;SDS011;51140;45.340;5.980;2023-04-03T05:31:20;5.55;;;1.90;;
64712;SDS011;51140;45.340;5.980;2023-04-03T05:33:45;5.63;;;2.60;;
64712;SDS011;51140;45.340;5.980;2023-04-03T05:36:11;5.78;;;2.50;;
64712;SDS011;51140;45.340;5.980;2023-04-03T05:38:37;6.28;;;3.10;;
64712;SDS011;51140;45.340;5.980;2023-04-03T05:41:03;7.65;;;2.92;;
64712;SDS011;51140;45.340;5.980;2023-04-03T05:43:29;8.18;;;4.70;;
64712;SDS011;51140;45.340;5.980;2023-04-03T05:45:54;10.15;;;5.40;;
64712;SDS011;51140;45.340;5.980;2023-04-03T05:48:20;9.13;;;5.47;;
64712;SDS011;51140;45.340;5.980;2023-04-03T05:50:45;9.65;;;4.72;;
64712;SDS011;51140;45.340;5.980;2023-04-03T05:53:16;7.85;;;4.78;;
64712;SDS011;51140;45.340;5.980;2023-04-03T05:55:44;9.38;;;4.72;;
64712;SDS011;51140;45.340;5.980;2023-04-03T05:58:09;8.15;;;4.28;;
64712;SDS011;51140;45.340;5.980;2023-04-03T06:00:34;9.38;;;5.65;;
64712;SDS011;51140;45.340;5.980;2023-04-03T06:03:00;9.55;;;5.18;;
64712;SDS011;51140;45.340;5.980;2023-04-03T06:05:25;9.52;;;4.90;;
64712;SDS011;51140;45.340;5.980;2023-04-03T06:07:51;7.38;;;4.30;;
64712;SDS011;51140;45.340;5.980;2023-04-03T06:10:16;8.32;;;4.53;;
64712;SDS011;51140;45.340;5.980;2023-04-03T06:12:42;8.75;;;4.70;;
64712;SDS011;51140;45.340;5.980;2023-04-03T06:15:08;7.25;;;4.25;;
64712;SDS011;51140;45.340;5.980;2023-04-03T06:17:35;8.45;;;5.18;;
64712;SDS011;51140;45.340;5.980;2023-04-03T06:20:02;7.43;;;4.18;;
64712;SDS011;51140;45.340;5.980;2023-04-03T06:22:28;7.43;;;3.88;;
64712;SDS011;51140;45.340;5.980;2023-04-03T06:24:55;7.75;;;4.10;;
64712;SDS011;51140;45.340;5.980;2023-04-03T06:27:20;7.05;;;3.85;;
64712;SDS011;51140;45.340;5.980;2023-04-03T06:29:46;7.80;;;4.30;;
64712;SDS011;51140;45.340;5.980;2023-04-03T06:32:11;6.72;;;3.60;;
64712;SDS011;51140;45.340;5.980;2023-04-03T06:34:37;7.93;;;4.57;;
64712;SDS011;51140;45.340;5.980;2023-04-03T06:37:02;8.00;;;3.92;;
64712;SDS011;51140;45.340;5.980;2023-04-03T06:39:28;7.18;;;3.72;;
64712;SDS011;51140;45.340;5.980;2023-04-03T06:41:54;10.05;;;4.60;;
64712;SDS011;51140;45.340;5.980;2023-04-03T06:44:20;8.85;;;4.63;;
64712;SDS011;51140;45.340;5.980;2023-04-03T06:46:45;8.18;;;4.63;;
64712;SDS011;51140;45.340;5.980;2023-04-03T06:49:11;7.82;;;4.35;;
64712;SDS011;51140;45.340;5.980;2023-04-03T06:51:37;7.13;;;4.07;;
64712;SDS011;51140;45.340;5.980;2023-04-03T06:54:03;7.88;;;4.28;;
64712;SDS011;51140;45.340;5.980;2023-04-03T06:56:30;7.43;;;4.05;;
64712;SDS011;51140;45.340;5.980;2023-04-03T06:58:56;8.50;;;4.40;;
64712;SDS011;51140;45.340;5.980;2023-04-03T07:01:26;7.60;;;3.58;;
64712;SDS011;51140;45.340;5.980;2023-04-03T07:03:52;7.68;;;3.67;;
64712;SDS011;51140;45.340;5.980;2023-04-03T07:06:18;9.02;;;3.97;;
64712;SDS011;51140;45.340;5.980;2023-04-03T07:08:44;6.65;;;3.60;;
64712;SDS011;51140;45.340;5.980;2023-04-03T07:11:11;6.45;;;3.63;;
64712;SDS011;51140;45.340;5.980;2023-04-03T07:13:37;7.65;;;3.90;;
64712;SDS011;51140;45.340;5.980;2023-04-03T07:16:03;6.35;;;3.40;;
64712;SDS011;51140;45.340;5.980;2023-04-03T07:18:30;10.23;;;3.95;;
64712;SDS011;51140;45.340;5.980;2023-04-03T07:20:56;6.70;;;3.58;;
64712;SDS011;51140;45.340;5.980;2023-04-03T07:23:22;6.72;;;3.30;;
64712;SDS011;51140;45.340;5.980;2023-04-03T07:25:48;6.47;;;3.70;;
64712;SDS011;51140;45.340;5.980;2023-04-03T07:28:15;7.25;;;3.72;;
64712;SDS011;51140;45.340;5.980;2023-04-03T07:30:43;7.45;;;3.50;;
64712;SDS011;51140;45.340;5.980;2023-04-03T07:33:12;6.57;;;3.38;;
64712;SDS011;51140;45.340;5.980;2023-04-03T07:35:39;6.65;;;3.33;;
64712;SDS011;51140;45.340;5.980;2023-04-03T07:38:05;7.00;;;3.90;;
64712;SDS011;51140;45.340;5.980;2023-04-03T07:40:31;7.50;;;4.38;;
64712;SDS011;51140;45.340;5.980;2023-04-03T07:42:57;6.05;;;3.38;;
64712;SDS011;51140;45.340;5.980;2023-04-03T07:45:23;9.30;;;3.90;;
64712;SDS011;51140;45.340;5.980;2023-04-03T07:47:49;8.77;;;3.63;;
64712;SDS011;51140;45.340;5.980;2023-04-03T07:50:15;7.68;;;3.92;;
64712;SDS011;51140;45.340;5.980;2023-04-03T07:52:41;7.63;;;3.55;;
64712;SDS011;51140;45.340;5.980;2023-04-03T07:55:06;9.45;;;3.92;;
64712;SDS011;51140;45.340;5.980;2023-04-03T07:57:32;7.20;;;3.67;;
64712;SDS011;51140;45.340;5.980;2023-04-03T07:59:58;7.70;;;3.85;;
64712;SDS011;51140;45.340;5.980;2023-04-03T08:02:23;8.77;;;4.15;;
64712;SDS011;51140;45.340;5.980;2023-04-03T08:04:48;7.68;;;3.50;;
64712;SDS011;51140;45.340;5.980;2023-04-03T08:07:14;9.55;;;3.72;;
64712;SDS011;51140;45.340;5.980;2023-04-03T08:09:40;5.95;;;3.13;;
64712;SDS011;51140;45.340;5.980;2023-04-03T08:12:05;7.35;;;3.60;;
64712;SDS011;51140;45.340;5.980;2023-04-03T08:14:31;8.27;;;3.60;;
64712;SDS011;51140;45.340;5.980;2023-04-03T08:16:59;6.63;;;3.25;;
64712;SDS011;51140;45.340;5.980;2023-04-03T08:19:25;7.20;;;3.28;;
64712;SDS011;51140;45.340;5.980;2023-04-03T08:21:53;8.15;;;3.38;;
64712;SDS011;51140;45.340;5.980;2023-04-03T08:24:19;7.40;;;3.70;;
64712;SDS011;51140;45.340;5.980;2023-04-03T08:26:44;5.70;;;3.00;;
64712;SDS011;51140;45.340;5.980;2023-04-03T08:29:10;6.97;;;2.95;;
64712;SDS011;51140;45.340;5.980;2023-04-03T08:31:35;5.85;;;2.63;;
64712;SDS011;51140;45.340;5.980;2023-04-03T08:34:01;5.53;;;2.67;;
64712;SDS011;51140;45.340;5.980;2023-04-03T08:36:27;6.22;;;2.72;;
64712;SDS011;51140;45.340;5.980;2023-04-03T08:38:54;5.93;;;2.38;;
64712;SDS011;51140;45.340;5.980;2023-04-03T08:41:34;4.82;;;2.08;;
64712;SDS011;51140;45.340;5.980;2023-04-03T08:49:39;4.43;;;2.17;;
64712;SDS011;51140;45.340;5.980;2023-04-03T08:52:17;4.30;;;2.10;;
64712;SDS011;51140;45.340;5.980;2023-04-03T08:55:00;5.68;;;2.50;;
64712;SDS011;51140;45.340;5.980;2023-04-03T08:57:29;4.80;;;2.03;;
64712;SDS011;51140;45.340;5.980;2023-04-03T08:59:59;4.72;;;2.03;;
64712;SDS011;51140;45.340;5.980;2023-04-03T09:08:24;5.40;;;1.85;;
64712;SDS011;51140;45.340;5.980;2023-04-03T09:11:33;3.10;;;1.58;;
64712;SDS011;51140;45.340;5.980;2023-04-03T09:14:02;4.13;;;1.63;;
64712;SDS011;51140;45.340;5.980;2023-04-03T09:16:53;2.92;;;1.38;;
64712;SDS011;51140;45.340;5.980;2023-04-03T09:24:41;3.60;;;1.40;;
64712;SDS011;51140;45.340;5.980;2023-04-03T09:27:10;4.80;;;1.73;;
64712;SDS011;51140;45.340;5.980;2023-04-03T09:29:39;4.07;;;1.50;;
64712;SDS011;51140;45.340;5.980;2023-04-03T09:35:01;4.72;;;1.35;;
64712;SDS011;51140;45.340;5.980;2023-04-03T09:37:44;3.33;;;1.48;;
64712;SDS011;51140;45.340;5.980;2023-04-03T09:42:51;3.42;;;1.17;;
64712;SDS011;51140;45.340;5.980;2023-04-03T09:45:31;3.08;;;1.27;;
64712;SDS011;51140;45.340;5.980;2023-04-03T09:48:06;3.40;;;1.38;;
64712;SDS011;51140;45.340;5.980;2023-04-03T09:50:32;6.30;;;1.50;;
64712;SDS011;51140;45.340;5.980;2023-04-03T09:52:59;3.35;;;1.30;;
64712;SDS011;51140;45.340;5.980;2023-04-03T09:55:32;3.30;;;1.30;;
64712;SDS011;51140;45.340;5.980;2023-04-03T09:57:58;3.58;;;1.17;;
64712;SDS011;51140;45.340;5.980;2023-04-03T10:00:28;3.75;;;1.50;;
64712;SDS011;51140;45.340;5.980;2023-04-03T10:02:58;4.30;;;1.55;;
64712;SDS011;51140;45.340;5.980;2023-04-03T10:05:34;3.03;;;1.33;;
64712;SDS011;51140;45.340;5.980;2023-04-03T10:08:07;3.13;;;1.20;;
64712;SDS011;51140;45.340;5.980;2023-04-03T10:10:35;3.60;;;1.05;;
64712;SDS011;51140;45.340;5.980;2023-04-03T10:13:09;2.45;;;0.98;;
64712;SDS011;51140;45.340;5.980;2023-04-03T10:15:45;3.63;;;1.20;;
64712;SDS011;51140;45.340;5.980;2023-04-03T10:21:10;2.25;;;0.90;;
64712;SDS011;51140;45.340;5.980;2023-04-03T10:24:00;3.45;;;1.25;;
64712;SDS011;51140;45.340;5.980;2023-04-03T10:31:43;4.07;;;1.20;;
64712;SDS011;51140;45.340;5.980;2023-04-03T10:34:23;2.45;;;1.13;;
64712;SDS011;51140;45.340;5.980;2023-04-03T10:42:02;3.10;;;1.20;;
64712;SDS011;51140;45.340;5.980;2023-04-03T10:47:20;3.70;;;1.60;;
64712;SDS011;51140;45.340;5.980;2023-04-03T10:50:02;7.53;;;3.60;;
64712;SDS011;51140;45.340;5.980;2023-04-03T10:57:38;4.63;;;2.13;;
64712;SDS011;51140;45.340;5.980;2023-04-03T11:00:16;4.07;;;1.60;;
64712;SDS011;51140;45.340;5.980;2023-04-03T11:02:54;3.75;;;1.65;;
64712;SDS011;51140;45.340;5.980;2023-04-03T11:05:34;3.38;;;1.38;;
64712;SDS011;51140;45.340;5.980;2023-04-03T11:08:10;3.75;;;1.52;;
64712;SDS011;51140;45.340;5.980;2023-04-03T11:13:20;8.10;;;3.80;;
64712;SDS011;51140;45.340;5.980;2023-04-03T11:15:48;10.90;;;5.55;;
64712;SDS011;51140;45.340;5.980;2023-04-03T11:18:17;14.43;;;8.93;;
64712;SDS011;51140;45.340;5.980;2023-04-03T11:21:11;3.80;;;1.52;;
64712;SDS011;51140;45.340;5.980;2023-04-03T11:23:37;9.77;;;5.07;;
64712;SDS011;51140;45.340;5.980;2023-04-03T11:26:07;9.70;;;6.43;;
64712;SDS011;51140;45.340;5.980;2023-04-03T11:28:35;6.10;;;2.95;;
64712;SDS011;51140;45.340;5.980;2023-04-03T11:36:59;8.75;;;4.82;;
64712;SDS011;51140;45.340;5.980;2023-04-03T11:41:55;5.97;;;3.08;;
64712;SDS011;51140;45.340;5.980;2023-04-03T11:46:59;5.72;;;2.83;;
64712;SDS011;51140;45.340;5.980;2023-04-03T11:55:35;3.70;;;1.77;;
64712;SDS011;51140;45.340;5.980;2023-04-03T12:16:52;5.80;;;3.05;;
64712;SDS011;51140;45.340;5.980;2023-04-03T12:34:44;5.10;;;2.15;;
64712;SDS011;51140;45.340;5.980;2023-04-03T12:39:54;10.00;;;6.60;;
64712;SDS011;51140;45.340;5.980;2023-04-03T12:47:45;4.63;;;1.92;;
64712;SDS011;51140;45.340;5.980;2023-04-03T12:50:16;4.50;;;2.05;;
64712;SDS011;51140;45.340;5.980;2023-04-03T12:55:29;3.42;;;1.67;;
64712;SDS011;51140;45.340;5.980;2023-04-03T12:57:55;3.70;;;1.70;;
64712;SDS011;51140;45.340;5.980;2023-04-03T13:03:06;4.68;;;2.33;;
64712;SDS011;51140;45.340;5.980;2023-04-03T13:05:48;5.28;;;2.72;;
64712;SDS011;51140;45.340;5.980;2023-04-03T13:08:13;3.53;;;1.80;;
64712;SDS011;51140;45.340;5.980;2023-04-03T13:11:01;4.05;;;1.50;;
64712;SDS011;51140;45.340;5.980;2023-04-03T13:13:30;5.13;;;2.15;;
64712;SDS011;51140;45.340;5.980;2023-04-03T13:15:56;4.65;;;1.90;;
64712;SDS011;51140;45.340;5.980;2023-04-03T13:23:26;2.33;;;1.25;;
64712;SDS011;51140;45.340;5.980;2023-04-03T13:25:52;3.30;;;1.50;;
64712;SDS011;51140;45.340;5.980;2023-04-03T13:28:22;3.42;;;1.60;;
64712;SDS011;51140;45.340;5.980;2023-04-03T13:33:28;3.70;;;1.40;;
64712;SDS011;51140;45.340;5.980;2023-04-03T13:36:18;4.05;;;1.90;;
64712;SDS011;51140;45.340;5.980;2023-04-03T13:38:46;2.97;;;1.50;;
64712;SDS011;51140;45.340;5.980;2023-04-03T13:41:29;3.05;;;1.40;;
64712;SDS011;51140;45.340;5.980;2023-04-03T13:44:13;3.60;;;1.63;;
64712;SDS011;51140;45.340;5.980;2023-04-03T13:51:51;4.07;;;1.60;;
64712;SDS011;51140;45.340;5.980;2023-04-03T13:54:21;3.65;;;1.65;;
64712;SDS011;51140;45.340;5.980;2023-04-03T13:56:55;2.78;;;1.20;;
64712;SDS011;51140;45.340;5.980;2023-04-03T13:59:33;3.80;;;1.50;;
64712;SDS011;51140;45.340;5.980;2023-04-03T14:04:29;3.58;;;1.67;;
64712;SDS011;51140;45.340;5.980;2023-04-03T14:06:56;3.38;;;1.40;;
64712;SDS011;51140;45.340;5.980;2023-04-03T14:09:22;2.35;;;1.13;;
64712;SDS011;51140;45.340;5.980;2023-04-03T14:11:50;3.83;;;1.52;;
64712;SDS011;51140;45.340;5.980;2023-04-03T14:14:23;5.25;;;1.90;;
64712;SDS011;51140;45.340;5.980;2023-04-03T14:16:55;4.07;;;1.70;;
64712;SDS011;51140;45.340;5.980;2023-04-03T14:19:29;3.70;;;1.75;;
64712;SDS011;51140;45.340;5.980;2023-04-03T14:21:57;4.78;;;1.83;;
64712;SDS011;51140;45.340;5.980;2023-04-03T14:24:24;3.22;;;1.35;;
64712;SDS011;51140;45.340;5.980;2023-04-03T14:26:50;9.98;;;2.03;;
64712;SDS011;51140;45.340;5.980;2023-04-03T14:29:17;3.40;;;1.48;;
64712;SDS011;51140;45.340;5.980;2023-04-03T14:31:44;4.45;;;1.83;;
64712;SDS011;51140;45.340;5.980;2023-04-03T14:34:11;4.88;;;1.92;;
64712;SDS011;51140;45.340;5.980;2023-04-03T14:36:38;4.63;;;1.50;;
64712;SDS011;51140;45.340;5.980;2023-04-03T14:39:05;3.75;;;1.65;;
64712;SDS011;51140;45.340;5.980;2023-04-03T14:41:32;2.92;;;1.15;;
64712;SDS011;51140;45.340;5.980;2023-04-03T14:43:57;3.72;;;1.65;;
64712;SDS011;51140;45.340;5.980;2023-04-03T14:48:57;4.47;;;1.92;;
64712;SDS011;51140;45.340;5.980;2023-04-03T14:51:23;11.23;;;5.50;;
64712;SDS011;51140;45.340;5.980;2023-04-03T14:53:49;5.93;;;1.80;;
64712;SDS011;51140;45.340;5.980;2023-04-03T14:56:23;6.20;;;3.40;;
64712;SDS011;51140;45.340;5.980;2023-04-03T14:58:54;11.60;;;2.40;;
64712;SDS011;51140;45.340;5.980;2023-04-03T15:01:22;3.80;;;2.05;;
64712;SDS011;51140;45.340;5.980;2023-04-03T15:03:47;3.88;;;1.60;;
64712;SDS011;51140;45.340;5.980;2023-04-03T15:06:13;6.78;;;1.85;;
64712;SDS011;51140;45.340;5.980;2023-04-03T15:08:40;4.53;;;1.95;;
64712;SDS011;51140;45.340;5.980;2023-04-03T15:11:07;2.70;;;1.45;;
64712;SDS011;51140;45.340;5.980;2023-04-03T15:13:34;5.15;;;1.60;;
64712;SDS011;51140;45.340;5.980;2023-04-03T15:15:59;5.97;;;1.85;;
64712;SDS011;51140;45.340;5.980;2023-04-03T15:18:25;3.33;;;1.40;;
64712;SDS011;51140;45.340;5.980;2023-04-03T15:20:54;2.92;;;1.33;;
64712;SDS011;51140;45.340;5.980;2023-04-03T15:23:20;3.88;;;1.60;;
64712;SDS011;51140;45.340;5.980;2023-04-03T15:25:51;4.50;;;1.60;;
64712;SDS011;51140;45.340;5.980;2023-04-03T15:28:18;3.08;;;1.58;;
64712;SDS011;51140;45.340;5.980;2023-04-03T15:30:48;3.50;;;1.55;;
64712;SDS011;51140;45.340;5.980;2023-04-03T15:33:15;3.95;;;2.00;;
64712;SDS011;51140;45.340;5.980;2023-04-03T15:35:40;3.90;;;1.60;;
64712;SDS011;51140;45.340;5.980;2023-04-03T15:38:06;5.80;;;1.80;;
64712;SDS011;51140;45.340;5.980;2023-04-03T15:40:31;2.72;;;1.40;;
64712;SDS011;51140;45.340;5.980;2023-04-03T15:42:57;5.38;;;1.70;;
64712;SDS011;51140;45.340;5.980;2023-04-03T15:45:22;3.17;;;1.42;;
64712;SDS011;51140;45.340;5.980;2023-04-03T15:47:48;3.92;;;1.60;;
64712;SDS011;51140;45.340;5.980;2023-04-03T15:50:13;4.03;;;1.70;;
64712;SDS011;51140;45.340;5.980;2023-04-03T15:52:39;4.05;;;1.60;;
64712;SDS011;51140;45.340;5.980;2023-04-03T15:55:04;3.60;;;1.50;;
64712;SDS011;51140;45.340;5.980;2023-04-03T15:57:30;3.05;;;1.45;;
64712;SDS011;51140;45.340;5.980;2023-04-03T15:59:56;4.75;;;2.00;;
64712;SDS011;51140;45.340;5.980;2023-04-03T16:02:21;4.00;;;1.27;;
64712;SDS011;51140;45.340;5.980;2023-04-03T16:04:47;4.40;;;1.85;;
64712;SDS011;51140;45.340;5.980;2023-04-03T16:07:13;2.92;;;1.42;;
64712;SDS011;51140;45.340;5.980;2023-04-03T16:09:38;3.67;;;1.88;;
64712;SDS011;51140;45.340;5.980;2023-04-03T16:12:04;3.67;;;1.50;;
64712;SDS011;51140;45.340;5.980;2023-04-03T16:14:29;3.88;;;1.83;;
64712;SDS011;51140;45.340;5.980;2023-04-03T16:16:55;5.95;;;2.00;;
64712;SDS011;51140;45.340;5.980;2023-04-03T16:19:22;4.15;;;1.70;;
64712;SDS011;51140;45.340;5.980;2023-04-03T16:21:48;3.67;;;1.70;;
64712;SDS011;51140;45.340;5.980;2023-04-03T16:24:13;3.55;;;1.63;;
64712;SDS011;51140;45.340;5.980;2023-04-03T16:26:39;4.60;;;1.80;;
64712;SDS011;51140;45.340;5.980;2023-04-03T16:29:04;3.40;;;1.70;;
64712;SDS011;51140;45.340;5.980;2023-04-03T16:31:29;3.88;;;1.88;;
64712;SDS011;51140;45.340;5.980;2023-04-03T16:33:58;4.25;;;1.77;;
64712;SDS011;51140;45.340;5.980;2023-04-03T16:36:25;5.90;;;2.85;;
64712;SDS011;51140;45.340;5.980;2023-04-03T16:38:50;5.03;;;2.30;;
64712;SDS011;51140;45.340;5.980;2023-04-03T16:41:16;4.82;;;1.60;;
64712;SDS011;51140;45.340;5.980;2023-04-03T16:43:42;5.55;;;2.20;;
64712;SDS011;51140;45.340;5.980;2023-04-03T16:46:07;6.65;;;3.05;;
64712;SDS011;51140;45.340;5.980;2023-04-03T16:48:33;4.72;;;2.05;;
64712;SDS011;51140;45.340;5.980;2023-04-03T16:50:58;4.18;;;1.58;;
64712;SDS011;51140;45.340;5.980;2023-04-03T16:53:24;5.18;;;2.50;;
64712;SDS011;51140;45.340;5.980;2023-04-03T16:55:51;3.72;;;1.65;;
64712;SDS011;51140;45.340;5.980;2023-04-03T16:58:16;9.85;;;3.28;;
64712;SDS011;51140;45.340;5.980;2023-04-03T17:00:42;5.47;;;2.55;;
64712;SDS011;51140;45.340;5.980;2023-04-03T17:03:07;10.27;;;3.55;;
64712;SDS011;51140;45.340;5.980;2023-04-03T17:05:33;5.35;;;2.22;;
64712;SDS011;51140;45.340;5.980;2023-04-03T17:07:59;5.88;;;2.20;;
64712;SDS011;51140;45.340;5.980;2023-04-03T17:10:26;4.65;;;2.08;;